Latest Weather Observations for Oodnadatta

IDS60801

Issued at 8:35 pm CDT Saturday 25 October 2014 (issued every 30 minutes, with the page automatically refreshed every 10 minutes)

About weather observations | Map of weather stations | Latest weather observations for SA | Other Formats
Station Details ID: 017043 Name: OODNADATTA AIRPORT Lat: -27.56 Lon: 135.45 Height: 116.5 m
Data from the previous 72 hours. | See also: Recent months at Oodnadatta
Date/Time
CDT
Temp
°C
App
Temp
°C
Dew
Point
Rel
Hum
%
Delta-T
°C
Wind Press
QNH
hPa
Press
MSL
hPa
Rain
since 9 am
mm
Dir
 
Spd
km/h
Gust
km/h
Spd
kts
Gust
kts
25/08:30pm 37.2 32.4 0.5 10 18.6 N 15 17 8 9 1012.2 - 0.0
25/08:00pm 38.1 33.6 -0.3 9 19.3 N 13 17 7 9 1012.0 - 0.0
25/07:30pm 39.0 34.6 0.4 9 19.8 NNW 13 19 7 10 1011.7 - 0.0
25/07:00pm 39.4 35.4 0.7 9 19.9 N 11 15 6 8 1011.6 - 0.0
25/06:30pm 39.7 34.2 0.9 9 20.1 NNW 19 28 10 15 1011.5 - 0.0
25/06:00pm 40.1 36.2 1.2 9 20.3 WNW 11 19 6 10 1011.4 1010.9 0.0
25/05:30pm 40.2 36.5 -0.3 8 20.6 NE 9 17 5 9 1011.4 - 0.0
25/05:00pm 40.9 36.5 0.2 8 21.0 WNW 13 22 7 12 1011.5 - 0.0
25/04:30pm 40.4 33.8 -0.2 8 20.8 NW 24 32 13 17 1011.7 - 0.0
25/04:00pm 40.4 35.5 -0.2 8 20.8 NNW 15 26 8 14 1012.0 - 0.0
25/03:30pm 39.7 35.0 0.9 9 20.1 N 15 22 8 12 1012.2 - 0.0
25/03:00pm 41.2 34.7 0.4 8 21.1 WNW 24 35 13 19 1012.7 1012.2 0.0
25/02:30pm 41.2 34.3 0.4 8 21.1 NNW 26 41 14 22 1013.1 - 0.0
25/02:00pm 40.8 34.3 0.1 8 20.9 N 24 37 13 20 1013.5 - 0.0
25/01:30pm 41.3 35.2 0.5 8 21.2 NW 22 32 12 17 1013.9 - 0.0
25/01:00pm 39.8 33.0 1.0 9 20.1 NNW 26 41 14 22 1014.5 - 0.0
25/12:30pm 39.7 32.5 0.9 9 20.1 NW 28 37 15 20 1014.9 - 0.0
25/12:10pm 39.3 32.1 0.6 9 19.9 NW 28 46 15 25 1015.2 - 0.0
25/12:00pm 39.4 33.0 0.7 9 19.9 NW 24 43 13 23 1015.5 1015.0 0.0
25/11:30am 38.4 32.5 1.4 10 19.2 NW 22 30 12 16 1015.8 - 0.0
25/11:00am 36.9 33.1 1.6 11 18.2 N 11 20 6 11 1016.3 - 0.0
25/10:30am 35.2 32.3 2.6 13 16.9 NE 7 15 4 8 1016.6 - 0.0
25/10:00am 33.9 31.2 3.6 15 15.8 E 7 13 4 7 1016.9 - 0.0
25/09:30am 32.0 28.6 3.9 17 14.6 S 11 15 6 8 1017.1 - 0.0
25/09:00am 31.1 28.3 3.2 17 14.2 SSW 7 13 4 7 1017.2 1016.7 0.0
25/08:30am 28.8 26.9 2.9 19 13.0 SSW 2 7 1 4 1016.9 - 0.0
25/08:00am 27.0 25.5 2.8 21 12.0 CALM 0 0 0 0 1016.7 - 0.0
25/07:30am 25.3 22.9 2.1 22 11.2 SSE 4 9 2 5 1016.4 - 0.0
25/07:00am 25.3 21.9 2.1 22 11.2 SSE 9 11 5 6 1016.0 - 0.0
25/06:30am 25.6 22.6 1.7 21 11.5 WSW 7 11 4 6 1015.6 - 0.0
25/06:00am 26.1 23.1 0.7 19 12.0 W 6 9 3 5 1015.2 1014.7 0.0
25/05:30am 26.0 22.7 -0.1 18 12.1 W 7 20 4 11 1014.9 - 0.0
25/05:00am 28.5 25.4 1.1 17 13.3 NW 7 9 4 5 1014.6 - 0.0
25/04:30am 28.2 24.8 1.7 18 12.9 WNW 9 11 5 6 1014.4 - 0.0
25/04:00am 29.0 25.4 0.7 16 13.7 WNW 9 11 5 6 1014.1 - 0.0
25/03:30am 29.2 26.8 -0.1 15 14.0 S 2 9 1 5 1014.0 - 0.0
25/03:00am 30.9 28.2 0.3 14 14.9 NNW 4 9 2 5 1013.9 1013.4 0.0
25/02:30am 30.3 27.7 0.8 15 14.4 SW 4 6 2 3 1014.1 - 0.0
25/02:00am 29.8 26.6 -0.5 14 14.4 WSW 6 9 3 5 1014.1 - 0.0
25/01:30am 32.0 28.0 0.2 13 15.5 N 11 13 6 7 1014.2 - 0.0
25/01:00am 31.8 27.6 -1.1 12 15.7 N 11 13 6 7 1014.4 - 0.0
25/12:30am 34.5 31.2 -0.2 11 17.1 NNW 7 13 4 7 1014.3 - 0.0
25/12:00am 34.3 30.9 -0.4 11 17.0 E 7 15 4 8 1014.3 1013.8 0.0
 
Date/Time
CDT
Temp
°C
App
Temp
°C
Dew
Point
Rel
Hum
%
Delta-T
°C
Wind Press
QNH
hPa
Press
MSL
hPa
Rain
since 9 am
mm
Dir
 
Spd
km/h
Gust
km/h
Spd
kts
Gust
kts
24/11:30pm 34.7 31.0 -0.1 11 17.2 SW 9 13 5 7 1014.2 - 0.0
24/11:00pm 35.3 31.5 -0.9 10 17.7 SE 9 13 5 7 1014.1 - 0.0
24/10:30pm 33.8 28.1 -0.7 11 16.8 E 19 20 10 11 1013.8 - 0.0
24/10:00pm 33.8 29.1 -2.0 10 17.1 NE 13 17 7 9 1013.6 - 0.0
24/09:30pm 35.1 30.9 -1.1 10 17.7 NNE 11 13 6 7 1013.2 - 0.0
24/09:00pm 34.7 30.8 -1.4 10 17.5 NNE 9 13 5 7 1013.0 1012.5 0.0
24/08:30pm 35.8 33.0 -0.5 10 18.0 NW 4 9 2 5 1012.7 - 0.0
24/08:00pm 37.0 33.2 -1.1 9 18.8 NW 9 13 5 7 1012.3 - 0.0
24/07:30pm 38.2 34.9 -0.2 9 19.4 W 7 11 4 6 1011.9 - 0.0
24/07:00pm 39.0 32.3 -1.2 8 20.1 NW 24 28 13 15 1011.7 - 0.0
24/06:30pm 39.3 34.7 -1.0 8 20.2 NW 13 41 7 22 1011.5 - 0.0
24/06:00pm 39.7 33.8 -0.7 8 20.4 NNW 20 28 11 15 1011.1 1010.6 0.0
24/05:30pm 39.6 33.3 -0.8 8 20.4 NNW 22 35 12 19 1011.1 - 0.0
24/05:00pm 40.3 35.0 -0.3 8 20.7 NW 17 24 9 13 1011.1 - 0.0
24/04:30pm 40.5 33.2 -0.1 8 20.8 N 28 37 15 20 1011.2 - 0.0
24/04:00pm 40.3 34.1 -0.3 8 20.7 N 22 35 12 19 1011.4 - 0.0
24/03:30pm 40.0 33.0 -0.5 8 20.6 NNW 26 35 14 19 1011.7 - 0.0
24/03:00pm 39.9 32.5 -0.5 8 20.5 NNW 28 50 15 27 1012.0 1011.5 0.0
24/02:53pm 40.6 33.3 0.0 8 20.8 N 28 50 15 27 1012.0 - 0.0
24/02:30pm 40.1 33.5 -0.4 8 20.6 NNW 24 33 13 18 1012.4 - 0.0
24/02:14pm 39.4 30.6 -0.9 8 20.3 NW 35 54 19 29 1012.6 - 0.0
24/02:13pm 39.7 30.6 -0.7 8 20.4 NW 37 54 20 29 1012.6 - 0.0
24/02:12pm 40.3 31.8 -2.1 7 21.1 N 33 54 18 29 1012.5 - 0.0
24/02:00pm 40.4 32.1 -0.2 8 20.8 NNW 33 46 18 25 1012.8 - 0.0
24/01:48pm 39.2 31.0 -1.1 8 20.2 NNW 32 50 17 27 1013.0 - 0.0
24/01:30pm 39.6 31.2 -0.8 8 20.4 NNW 33 43 18 23 1013.3 - 0.0
24/01:07pm 39.3 30.5 -1.0 8 20.2 NNW 35 56 19 30 1013.4 - 0.0
24/01:00pm 39.3 30.5 -1.0 8 20.2 NNW 35 48 19 26 1013.6 - 0.0
24/12:30pm 38.8 29.6 -1.4 8 20.0 NNW 37 54 20 29 1013.8 - 0.0
24/12:24pm 39.1 30.3 -1.1 8 20.1 NNW 35 54 19 29 1013.9 - 0.0
24/12:00pm 38.0 28.3 -1.9 8 19.6 NNW 39 52 21 28 1014.2 1013.7 0.0
24/11:30am 38.1 28.7 -0.3 9 19.3 NNW 39 50 21 27 1014.5 - 0.0
24/11:00am 38.0 28.6 -0.3 9 19.3 NNW 39 48 21 26 1014.7 - 0.0
24/10:30am 36.7 26.7 -1.3 9 18.7 NNW 41 50 22 27 1014.9 - 0.0
24/10:00am 35.4 26.3 -0.8 10 17.8 NNW 37 52 20 28 1014.9 - 0.0
24/09:30am 34.9 26.5 -1.2 10 17.6 NNW 33 44 18 24 1014.9 - 0.0
24/09:00am 32.8 26.0 -1.5 11 16.4 NNW 24 32 13 17 1014.8 1014.3 0.0
24/08:30am 31.6 24.9 -1.2 12 15.6 NNW 24 30 13 16 1014.7 - 0.0
24/08:00am 30.1 24.1 -1.3 13 14.7 N 20 24 11 13 1014.5 - 0.0
24/07:30am 28.9 22.6 -1.2 14 14.0 N 22 24 12 13 1014.3 - 0.0
24/07:00am 27.7 21.7 -1.3 15 13.4 N 20 24 11 13 1013.9 - 0.0
24/06:30am 27.7 21.7 -1.3 15 13.4 N 20 22 11 12 1013.4 - 0.0
24/06:00am 26.6 21.2 -1.3 16 12.8 N 17 19 9 10 1013.5 1013.0 0.0
24/05:30am 27.4 22.5 -0.6 16 13.0 N 15 19 8 10 1013.1 - 0.0
24/05:00am 27.2 22.6 -0.8 16 13.0 N 13 15 7 8 1012.8 - 0.0
24/04:30am 27.7 23.2 -0.4 16 13.2 N 13 15 7 8 1012.8 - 0.0
24/04:00am 28.0 23.8 -1.0 15 13.5 NNW 11 13 6 7 1012.6 - 0.0
24/03:30am 28.5 23.2 -0.6 15 13.7 W 17 26 9 14 1012.6 - 0.0
24/03:00am 28.2 24.9 -0.9 15 13.6 N 6 7 3 4 1012.2 1011.7 0.0
24/02:30am 29.5 24.6 -0.8 14 14.3 NNE 15 19 8 10 1012.1 - 0.0
24/02:00am 29.9 24.2 -0.5 14 14.5 NNE 19 22 10 12 1012.2 - 0.0
24/01:30am 30.3 24.3 -1.2 13 14.8 NNE 20 24 11 13 1012.3 - 0.0
24/01:00am 30.6 24.3 -0.9 13 14.9 N 22 26 12 14 1012.3 - 0.0
24/12:30am 31.3 25.5 -0.4 13 15.2 NNE 20 26 11 14 1012.4 - 0.0
24/12:00am 32.2 25.5 -0.8 12 15.9 NNE 24 32 13 17 1012.6 1012.1 0.0
 
Date/Time
CDT
Temp
°C
App
Temp
°C
Dew
Point
Rel
Hum
%
Delta-T
°C
Wind Press
QNH
hPa
Press
MSL
hPa
Rain
since 9 am
mm
Dir
 
Spd
km/h
Gust
km/h
Spd
kts
Gust
kts
23/11:30pm 32.7 26.1 -0.4 12 16.1 NNE 24 32 13 17 1012.7 - 0.0
23/11:00pm 32.9 26.5 -1.4 11 16.4 NNE 22 26 12 14 1012.9 - 0.0
23/10:30pm 33.1 27.1 -1.3 11 16.5 NNE 20 24 11 13 1012.9 - 0.0
23/10:00pm 33.2 27.4 -1.2 11 16.5 NNE 19 22 10 12 1012.8 - 0.0
23/09:30pm 33.5 28.5 -1.0 11 16.7 NNE 15 17 8 9 1012.6 - 0.0
23/09:00pm 34.7 29.7 -1.4 10 17.5 N 15 17 8 9 1012.3 1011.8 0.0
23/08:30pm 35.9 31.0 -0.5 10 18.0 N 15 19 8 10 1011.9 - 0.0
23/08:00pm 36.8 31.8 -1.2 9 18.7 N 15 17 8 9 1011.5 - 0.0
23/07:30pm 37.7 32.8 -0.6 9 19.1 N 15 17 8 9 1011.3 - 0.0
23/07:00pm 38.6 34.9 0.1 9 19.6 NW 9 17 5 9 1010.9 - 0.0
23/06:30pm 39.2 33.8 -1.1 8 20.2 N 17 20 9 11 1010.7 - 0.0
23/06:00pm 39.7 34.4 -0.7 8 20.4 WNW 17 20 9 11 1010.5 1010.1 0.0
23/05:30pm 39.9 34.0 -0.5 8 20.5 N 20 35 11 19 1010.5 - 0.0
23/05:00pm 39.6 33.3 -0.8 8 20.4 N 22 30 12 16 1010.6 - 0.0
23/04:30pm 39.7 34.0 -0.7 8 20.4 N 19 28 10 15 1010.6 - 0.0
23/04:00pm 39.3 33.9 -1.0 8 20.2 NW 17 24 9 13 1010.9 - 0.0
23/03:30pm 39.4 33.7 0.7 9 19.9 NNW 20 30 11 16 1011.3 - 0.0
23/03:00pm 38.7 32.9 0.2 9 19.6 NNW 20 33 11 18 1011.6 1011.1 0.0
23/02:30pm 38.3 31.7 -0.1 9 19.4 NW 24 39 13 21 1012.3 - 0.0
23/02:00pm 39.8 34.2 1.0 9 20.1 NNW 20 32 11 17 1012.7 - 0.0
23/01:30pm 38.2 31.6 -0.2 9 19.4 N 24 39 13 21 1013.2 - 0.0
23/01:00pm 38.0 30.7 -0.3 9 19.3 NW 28 37 15 20 1013.7 - 0.0
23/12:30pm 37.9 31.3 -0.4 9 19.2 N 24 35 13 19 1014.3 - 0.0
23/12:00pm 37.6 30.6 -0.6 9 19.1 NNW 26 41 14 22 1014.8 1014.3 0.0
23/11:52am 35.7 28.3 -0.6 10 17.9 NNW 28 46 15 25 1015.0 - 0.0
23/11:00am 33.3 28.1 0.1 12 16.3 N 17 28 9 15 1015.5 - 0.0
23/10:30am 31.5 27.9 0.8 14 15.1 NNW 9 17 5 9 1015.7 - 0.0
23/10:00am 30.9 28.5 2.2 16 14.4 ESE 4 7 2 4 1015.9 - 0.0
23/09:30am 28.3 25.1 3.2 20 12.6 SSE 9 11 5 6 1016.1 - 0.0
23/09:00am 26.2 22.5 2.2 21 11.6 S 11 15 6 8 1015.9 1015.4 0.0
23/08:30am 24.9 20.7 1.7 22 11.1 SSW 13 17 7 9 1015.9 - 0.0
23/08:00am 23.7 19.5 1.4 23 10.5 S 13 15 7 8 1015.7 - 0.0
23/07:30am 21.0 18.7 0.2 25 9.4 S 2 7 1 4 1015.3 - 0.0
23/07:00am 20.1 16.8 -1.1 24 9.2 S 6 9 3 5 1015.3 - 0.0
23/06:30am 21.8 19.7 1.5 26 9.4 S 2 6 1 3 1014.8 - 0.0
23/06:00am 21.4 18.2 0.6 25 9.5 S 7 9 4 5 1015.0 1014.5 0.0
23/05:30am 21.5 18.5 0.7 25 9.5 S 6 7 3 4 1014.7 - 0.0
23/05:00am 21.6 17.9 0.2 24 9.7 SSE 9 11 5 6 1014.5 - 0.0
23/04:30am 22.3 19.1 0.8 24 9.9 S 7 9 4 5 1014.6 - 0.0
23/04:00am 22.5 18.1 0.4 23 10.1 S 13 13 7 7 1014.8 - 0.0
23/03:30am 23.7 19.5 1.4 23 10.5 S 13 15 7 8 1014.8 - 0.0
23/03:00am 24.0 19.7 1.0 22 10.8 SSW 13 15 7 8 1015.0 1014.5 0.0
23/02:30am 25.2 21.7 1.3 21 11.3 S 9 11 5 6 1015.2 - 0.0
23/02:00am 26.5 23.1 1.7 20 12.0 S 9 11 5 6 1015.3 - 0.0
23/01:30am 26.1 23.2 1.4 20 11.8 SSE 6 7 3 4 1015.7 - 0.0
23/01:00am 27.0 23.1 1.4 19 12.3 SSE 11 13 6 7 1015.9 - 0.0
23/12:30am 27.3 23.0 0.9 18 12.6 SSE 13 17 7 9 1016.0 - 0.0
23/12:00am 29.1 24.5 1.6 17 13.5 SSE 15 17 8 9 1016.1 1015.6 0.0
 
Date/Time
CDT
Temp
°C
App
Temp
°C
Dew
Point
Rel
Hum
%
Delta-T
°C
Wind Press
QNH
hPa
Press
MSL
hPa
Rain
since 9 am
mm
Dir
 
Spd
km/h
Gust
km/h
Spd
kts
Gust
kts
22/11:30pm 29.8 26.3 1.3 16 14.0 SE 9 13 5 7 1016.2 - 0.0
22/11:00pm 30.9 26.6 1.3 15 14.6 S 13 17 7 9 1016.0 - 0.0
22/10:30pm 30.8 26.5 1.2 15 14.6 S 13 15 7 8 1015.6 - 0.0
22/10:00pm 31.3 27.7 0.6 14 15.0 S 9 11 5 6 1015.3 - 0.0
22/09:30pm 32.1 28.2 1.3 14 15.3 SSE 11 13 6 7 1015.0 - 0.0
22/09:00pm 33.8 29.4 0.5 12 16.5 S 13 15 7 8 1014.7 1014.2 0.0

Other Formats:

Comma delimited format used in spreadsheet applications
http://www.bom.gov.au/fwo/IDS60801/IDS60801.94476.axf

JavaScript Object Notation format (JSON) in row-major order
http://www.bom.gov.au/fwo/IDS60801/IDS60801.94476.json